Time;durP1;ratioP1;P1;durP2;ratioP2;P2;SDS_P1;SDS_P2;PMS_P1;PMS_P2;Temp;Humidity;BMP_temperature;BMP_pressure;BME280_temperature;BME280_humidity;BME280_pressure;Samples;Min_cycle;Max_cycle;Signal;HPM_P1;HPM_P2
2022/11/12 00:03:33;;;;;;;0.10;0.10;;;7.90;99.90;6.40;97985.00;;;;4992692;28;20257;-77
2022/11/12 00:06:40;;;;;;;0.10;0.10;;;7.80;99.90;6.40;97986.00;;;;5033297;28;20302;-77
2022/11/12 00:09:26;;;;;;;0.10;0.10;;;7.80;99.90;6.30;97988.00;;;;5045870;28;20225;-78
2022/11/12 00:12:14;;;;;;;0.10;0.10;;;7.80;99.90;6.40;98000.00;;;;5041142;28;20329;-77
2022/11/12 00:15:01;;;;;;;0.10;0.10;;;7.80;99.90;6.40;97998.00;;;;5046769;28;20206;-77
2022/11/12 00:17:48;;;;;;;0.10;0.10;;;7.90;99.90;6.50;97988.00;;;;5038607;28;20241;-77
2022/11/12 00:20:35;;;;;;;0.10;0.10;;;7.90;99.90;6.50;97986.00;;;;5058134;28;20277;-78
2022/11/12 00:23:22;;;;;;;0.10;0.10;;;7.90;99.90;6.50;98016.00;;;;5068962;28;20209;-78
2022/11/12 00:26:09;;;;;;;0.10;0.10;;;7.90;99.90;6.50;97987.00;;;;5060773;28;20216;-78
2022/11/12 00:28:59;;;;;;;0.10;0.10;;;8.00;99.90;6.50;97986.00;;;;5055906;28;20345;-77
2022/11/12 00:31:46;;;;;;;0.10;0.10;;;8.00;99.90;6.50;97938.00;;;;5052244;28;20584;-76
2022/11/12 00:35:07;;;;;;;0.10;0.10;;;8.00;99.90;6.50;97989.00;;;;5057372;28;20288;-77
2022/11/12 00:51:05;;;;;;;0.10;0.10;;;7.90;99.90;6.20;98025.00;;;;5035968;28;20306;-76
2022/11/12 00:53:53;;;;;;;0.10;0.10;;;7.70;99.90;6.10;97915.00;;;;5039577;28;20315;-76
2022/11/12 00:56:39;;;;;;;0.10;0.10;;;7.60;99.90;6.10;98129.00;;;;5039754;28;20225;-76
2022/11/12 00:59:26;;;;;;;0.03;0.03;;;7.50;99.90;6.10;98061.00;;;;5073477;22;20283;-75
2022/11/12 01:02:14;;;;;;;0.10;0.10;;;7.50;99.90;6.10;98058.00;;;;5053782;28;20212;-74
2022/11/12 01:05:01;;;;;;;0.10;0.10;;;7.50;99.90;6.10;98051.00;;;;5065424;28;20332;-74
2022/11/12 01:07:48;;;;;;;0.10;0.10;;;7.50;99.90;6.10;98072.00;;;;5045988;28;20273;-73
2022/11/12 01:10:41;;;;;;;0.08;0.08;;;7.50;99.90;6.10;97986.00;;;;5053375;28;20339;-73
2022/11/12 01:13:28;;;;;;;0.10;0.10;;;7.50;99.90;6.10;97987.00;;;;5047048;28;20228;-74
2022/11/12 01:16:19;;;;;;;0.10;0.10;;;7.50;99.90;6.10;97994.00;;;;5055433;28;20321;-74
2022/11/12 01:19:10;;;;;;;0.00;0.00;;;7.50;99.90;6.10;98088.00;;;;5054040;28;20233;-74
2022/11/12 01:21:57;;;;;;;0.08;0.08;;;7.50;99.90;6.10;98048.00;;;;5055032;28;20207;-73
2022/11/12 01:24:43;;;;;;;0.00;0.00;;;7.50;99.90;6.10;98066.00;;;;5052035;28;20213;-75
2022/11/12 01:27:30;;;;;;;0.10;0.10;;;7.50;99.90;6.10;98029.00;;;;5051787;28;20718;-76
2022/11/12 01:30:17;;;;;;;0.10;0.10;;;7.50;99.90;6.10;98039.00;;;;5046042;28;20251;-76
2022/11/12 01:33:04;;;;;;;0.05;0.05;;;7.50;99.90;6.10;98097.00;;;;5052979;28;20582;-75
2022/11/12 01:35:52;;;;;;;0.00;0.00;;;7.50;99.90;6.10;98100.00;;;;5054091;28;20251;-76
2022/11/12 01:38:42;;;;;;;0.00;0.00;;;7.50;99.90;5.90;98103.00;;;;5048276;28;20237;-76
2022/11/12 01:41:32;;;;;;;0.10;0.10;;;7.50;99.90;6.00;98055.00;;;;5054288;28;20209;-76
2022/11/12 01:44:22;;;;;;;0.10;0.10;;;7.40;99.90;6.10;98197.00;;;;5046644;28;20263;-75
2022/11/12 01:47:19;;;;;;;0.10;0.10;;;7.40;99.90;6.00;98193.00;;;;5067136;28;20212;-75
2022/11/12 01:50:17;;;;;;;0.10;0.10;;;7.40;99.90;6.00;98198.00;;;;5059474;28;20193;-75
2022/11/12 01:53:11;;;;;;;0.10;0.10;;;7.30;99.90;6.00;98179.00;;;;5057538;28;20205;-75
2022/11/12 01:56:00;;;;;;;0.10;0.10;;;7.40;99.90;5.90;98212.00;;;;5053923;28;20213;-75
2022/11/12 01:58:55;;;;;;;0.05;0.05;;;7.30;99.90;5.90;98066.00;;;;5065316;28;20287;-75
2022/11/12 02:01:42;;;;;;;0.10;0.10;;;7.30;99.90;5.90;98016.00;;;;5061374;28;20249;-76
2022/11/12 02:04:29;;;;;;;0.00;0.00;;;7.30;99.90;5.90;97996.00;;;;5049077;28;20213;-76
2022/11/12 02:07:17;;;;;;;0.10;0.10;;;7.30;99.90;5.90;98002.00;;;;5053510;28;20271;-76
2022/11/12 02:10:09;;;;;;;0.00;0.00;;;7.30;99.90;5.90;98028.00;;;;5053846;28;20256;-76
2022/11/12 02:16:03;;;;;;;0.08;0.08;;;7.30;99.90;5.80;98009.00;;;;5055626;28;20209;-76
2022/11/12 02:18:49;;;;;;;0.10;0.10;;;7.20;99.90;5.80;98050.00;;;;5045786;28;20229;-75
2022/11/12 02:21:38;;;;;;;0.10;0.10;;;7.20;99.90;5.80;98085.00;;;;5053062;28;20256;-75
2022/11/12 02:24:35;;;;;;;0.10;0.10;;;7.20;99.90;5.70;97996.00;;;;5052438;28;20287;-74
2022/11/12 02:27:23;;;;;;;0.10;0.10;;;7.20;99.90;5.70;97990.00;;;;5048281;28;20205;-74
2022/11/12 02:30:11;;;;;;;0.10;0.10;;;7.20;99.90;5.70;97981.00;;;;5053540;28;20201;-74
2022/11/12 02:32:57;;;;;;;0.10;0.10;;;7.20;99.90;5.70;97986.00;;;;5054156;28;20214;-75
2022/11/12 02:35:44;;;;;;;0.10;0.10;;;7.20;99.90;5.70;97979.00;;;;5052761;28;20698;-73
2022/11/12 02:38:32;;;;;;;0.10;0.10;;;7.20;99.90;5.70;97981.00;;;;5062177;28;20233;-73
2022/11/12 02:41:19;;;;;;;0.10;0.10;;;7.10;99.90;5.70;97963.00;;;;5054968;28;20216;-73
2022/11/12 02:44:06;;;;;;;0.10;0.10;;;7.10;99.90;5.70;97953.00;;;;5051821;28;20609;-74
2022/11/12 02:46:53;;;;;;;0.10;0.10;;;7.20;99.90;5.60;97952.00;;;;5056420;28;20208;-74
2022/11/12 02:49:40;;;;;;;0.10;0.10;;;7.10;99.90;5.70;97969.00;;;;5053264;28;20746;-74
2022/11/12 02:52:26;;;;;;;0.10;0.10;;;7.10;99.90;5.70;97961.00;;;;5052843;28;20205;-73
2022/11/12 02:55:15;;;;;;;0.10;0.10;;;7.10;99.90;5.70;97985.00;;;;5051875;28;20284;-73
2022/11/12 02:58:02;;;;;;;0.10;0.10;;;7.20;99.90;5.80;98021.00;;;;5059917;28;20772;-74
2022/11/12 03:00:49;;;;;;;0.05;0.05;;;7.20;99.90;5.80;98012.00;;;;5052812;28;20247;-73
2022/11/12 03:03:36;;;;;;;0.10;0.10;;;7.20;99.90;5.70;97960.00;;;;5051941;28;20206;-73
2022/11/12 03:06:23;;;;;;;0.10;0.10;;;7.20;99.90;5.80;97970.00;;;;5053810;28;20248;-74
2022/11/12 03:09:12;;;;;;;0.10;0.10;;;7.30;99.90;5.70;98040.00;;;;5050623;28;20291;-74
2022/11/12 03:12:00;;;;;;;0.10;0.10;;;7.30;99.90;5.80;97967.00;;;;5053036;28;20217;-73
2022/11/12 03:14:47;;;;;;;0.10;0.10;;;7.30;99.90;5.90;97986.00;;;;5044376;28;20197;-74
2022/11/12 03:17:35;;;;;;;0.10;0.10;;;7.30;99.90;5.70;97977.00;;;;5056145;28;20210;-74
2022/11/12 03:20:21;;;;;;;0.10;0.10;;;7.10;99.90;5.50;97975.00;;;;5052006;28;20205;-75
2022/11/12 03:23:10;;;;;;;0.10;0.10;;;6.90;99.90;5.40;97989.00;;;;5047599;28;20293;-74
2022/11/12 03:25:57;;;;;;;0.10;0.10;;;6.80;99.90;5.40;97973.00;;;;5051621;28;20228;-73
2022/11/12 03:28:45;;;;;;;0.10;0.10;;;6.90;99.90;5.50;97985.00;;;;5044167;28;20233;-73
2022/11/12 03:31:32;;;;;;;0.10;0.10;;;6.90;99.90;5.40;97986.00;;;;5046027;28;20205;-73
2022/11/12 03:34:18;;;;;;;0.10;0.10;;;6.90;99.90;5.40;97977.00;;;;5051186;28;20240;-73
2022/11/12 03:37:08;;;;;;;0.10;0.10;;;6.80;99.90;5.40;98017.00;;;;5049743;28;20217;-74
2022/11/12 03:39:54;;;;;;;0.10;0.10;;;6.80;99.90;5.50;98117.00;;;;5054038;28;20229;-73
2022/11/12 03:42:46;;;;;;;0.00;0.00;;;6.90;99.90;5.50;98090.00;;;;5042969;28;20209;-73
2022/11/12 03:45:34;;;;;;;0.10;0.10;;;6.90;99.90;5.40;98060.00;;;;5040110;28;20201;-73
2022/11/12 03:48:21;;;;;;;0.10;0.10;;;6.90;99.90;5.50;98063.00;;;;5049991;28;20225;-73
2022/11/12 03:51:07;;;;;;;0.10;0.10;;;6.90;99.90;5.50;98070.00;;;;5050603;28;20603;-74
2022/11/12 03:53:54;;;;;;;0.10;0.10;;;6.90;99.90;5.50;98070.00;;;;5036986;28;20230;-73
2022/11/12 03:56:41;;;;;;;0.10;0.10;;;6.80;99.90;5.30;98026.00;;;;5059659;28;20201;-74
2022/11/12 03:59:28;;;;;;;0.10;0.10;;;6.70;99.90;5.30;98013.00;;;;5043573;28;20733;-74
2022/11/12 04:02:16;;;;;;;0.00;0.00;;;6.70;99.90;5.20;97997.00;;;;5051293;28;20699;-74
2022/11/12 04:11:19;;;;;;;0.10;0.10;;;6.70;99.90;5.20;97794.00;;;;5049268;28;20283;-74
2022/11/12 04:14:05;;;;;;;0.10;0.10;;;6.60;99.90;5.20;98037.00;;;;5051447;28;20209;-74
2022/11/12 04:22:59;;;;;;;0.05;0.05;;;6.50;99.90;5.00;98029.00;;;;5024192;28;20216;-73
2022/11/12 04:31:55;;;;;;;0.10;0.10;;;6.40;99.90;4.90;98012.00;;;;5054042;28;20681;-74
2022/11/12 04:34:42;;;;;;;0.10;0.10;;;6.40;99.90;4.90;97978.00;;;;5050591;28;20243;-74
2022/11/12 04:37:44;;;;;;;0.10;0.10;;;6.40;99.90;4.80;98003.00;;;;5052005;28;20213;-74
2022/11/12 04:46:40;;;;;;;0.10;0.10;;;6.30;99.90;4.90;97928.00;;;;5054883;28;20200;-74
2022/11/12 04:49:26;;;;;;;0.10;0.10;;;6.40;99.90;4.90;97932.00;;;;5048466;28;20229;-74
2022/11/12 04:52:13;;;;;;;0.10;0.10;;;6.40;99.90;4.90;97939.00;;;;5051738;28;20209;-75
2022/11/12 04:55:02;;;;;;;0.10;0.10;;;6.40;99.90;4.90;97954.00;;;;5044625;28;20206;-74
2022/11/12 04:57:48;;;;;;;0.10;0.10;;;6.40;99.90;5.00;97951.00;;;;5065131;28;20232;-75
2022/11/12 05:00:35;;;;;;;0.10;0.10;;;6.50;99.90;5.20;97984.00;;;;5054492;28;20332;-74
2022/11/12 05:03:22;;;;;;;0.10;0.10;;;6.70;99.90;5.20;97970.00;;;;5051833;28;20209;-75
2022/11/12 05:06:50;;;;;;;0.10;0.10;;;6.70;99.90;5.30;97940.00;;;;5062029;28;20205;-74
2022/11/12 05:09:16;;;;;;;0.10;0.10;;;6.80;99.90;5.30;97982.00;;;;5057328;28;20220;-74
2022/11/12 05:12:04;;;;;;;0.10;0.10;;;6.80;99.90;5.40;97995.00;;;;5058063;28;20599;-74
2022/11/12 05:14:51;;;;;;;0.10;0.10;;;6.90;99.90;5.40;97959.00;;;;5051511;28;20209;-73
2022/11/12 05:17:43;;;;;;;0.10;0.10;;;6.90;99.90;5.30;97978.00;;;;5054077;28;21334;-73
2022/11/12 05:20:30;;;;;;;0.10;0.10;;;6.80;99.90;5.30;98011.00;;;;5053032;28;20590;-73
2022/11/12 05:23:16;;;;;;;0.10;0.10;;;6.80;99.90;5.20;97803.00;;;;5056111;28;20275;-74
2022/11/12 05:26:03;;;;;;;0.10;0.10;;;6.70;99.90;4.70;97973.00;;;;5053087;28;20272;-74
2022/11/12 05:28:52;;;;;;;0.10;0.10;;;6.30;99.90;4.60;97943.00;;;;5054436;28;20343;-74
2022/11/12 05:31:38;;;;;;;0.00;0.00;;;6.10;99.90;4.40;97938.00;;;;5048895;28;20225;-74
2022/11/12 05:34:25;;;;;;;0.10;0.10;;;6.00;99.90;4.40;97937.00;;;;5060221;28;20196;-74
2022/11/12 05:37:14;;;;;;;0.10;0.10;;;6.00;99.90;4.30;97927.00;;;;5050359;28;20221;-75
2022/11/12 05:40:01;;;;;;;0.10;0.10;;;5.80;99.90;3.80;97937.00;;;;5057808;28;20213;-74
2022/11/12 05:42:47;;;;;;;0.10;0.10;;;5.70;99.90;4.30;97946.00;;;;5049694;28;20858;-74
2022/11/12 05:45:35;;;;;;;0.10;0.10;;;5.80;99.90;4.20;97961.00;;;;5049784;28;20571;-74
2022/11/12 05:48:22;;;;;;;0.00;0.00;;;5.80;99.90;4.10;97966.00;;;;5059957;28;20718;-76
2022/11/12 05:51:12;;;;;;;0.10;0.10;;;5.80;99.90;4.10;97986.00;;;;5049445;28;20217;-73
2022/11/12 05:53:59;;;;;;;0.10;0.10;;;5.80;99.90;3.90;97955.00;;;;5051694;28;20205;-73
2022/11/12 05:56:46;;;;;;;0.10;0.10;;;5.60;99.90;3.90;97953.00;;;;5048189;28;20328;-74
2022/11/12 05:59:33;;;;;;;0.10;0.10;;;5.50;99.90;3.90;97954.00;;;;5047694;28;20271;-73
2022/11/12 06:02:21;;;;;;;0.03;0.03;;;5.50;99.90;4.00;97970.00;;;;5048488;28;20205;-74
2022/11/12 06:05:09;;;;;;;0.10;0.10;;;5.60;99.90;3.90;97878.00;;;;5047587;28;20213;-74
2022/11/12 06:07:56;;;;;;;0.10;0.10;;;5.60;99.90;4.00;97849.00;;;;5048183;28;20289;-73
2022/11/12 06:10:43;;;;;;;0.10;0.10;;;5.60;99.90;4.00;97865.00;;;;5048510;28;20695;-73
2022/11/12 06:13:30;;;;;;;0.10;0.10;;;5.70;99.90;4.10;97871.00;;;;5049558;28;20595;-73
2022/11/12 06:16:16;;;;;;;0.10;0.10;;;5.70;99.90;4.00;97858.00;;;;5053318;28;20205;-73
2022/11/12 06:19:05;;;;;;;0.10;0.10;;;5.60;99.90;4.00;97848.00;;;;5052286;28;20229;-73
2022/11/12 06:21:51;;;;;;;0.10;0.10;;;5.70;99.90;4.00;97866.00;;;;5054633;28;20205;-74
2022/11/12 06:24:38;;;;;;;0.00;0.00;;;5.70;99.90;4.00;97847.00;;;;5054971;28;20205;-74
2022/11/12 06:27:25;;;;;;;0.10;0.10;;;5.60;99.90;4.00;97869.00;;;;5046565;28;20202;-74
2022/11/12 06:30:12;;;;;;;0.10;0.10;;;5.70;99.90;4.10;97876.00;;;;5052912;28;20217;-74
2022/11/12 06:32:59;;;;;;;0.10;0.10;;;5.80;99.90;3.80;97860.00;;;;5050525;28;20208;-73
2022/11/12 06:35:47;;;;;;;0.00;0.00;;;5.50;99.90;3.80;97871.00;;;;5052166;28;20225;-74
2022/11/12 06:38:38;;;;;;;0.10;0.10;;;5.50;99.90;3.70;97839.00;;;;5047547;28;20236;-74
2022/11/12 06:41:25;;;;;;;0.10;0.10;;;5.40;99.90;3.80;97889.00;;;;5053234;28;20237;-74
2022/11/12 06:44:12;;;;;;;0.10;0.10;;;5.50;99.90;4.00;97899.00;;;;5057330;28;20216;-75
2022/11/12 06:47:06;;;;;;;0.10;0.10;;;5.70;99.90;4.10;97913.00;;;;5050663;28;20205;-76
2022/11/12 06:49:52;;;;;;;0.10;0.10;;;5.70;99.90;4.00;97869.00;;;;5052841;28;20205;-74
2022/11/12 06:52:41;;;;;;;0.10;0.10;;;5.60;99.90;3.90;97879.00;;;;5055617;28;20209;-74
2022/11/12 06:55:28;;;;;;;0.10;0.10;;;5.60;99.90;3.90;97874.00;;;;5053855;28;20208;-74
2022/11/12 07:11:15;;;;;;;0.10;0.10;;;5.50;99.90;4.00;97889.00;;;;4930627;29;20334;-78
2022/11/12 07:14:02;;;;;;;0.10;0.10;;;5.60;99.90;4.00;97866.00;;;;4940323;28;20296;-76
2022/11/12 07:16:48;;;;;;;0.10;0.10;;;5.50;99.90;4.00;97884.00;;;;5048927;28;20293;-75
2022/11/12 07:19:35;;;;;;;0.10;0.10;;;5.50;99.90;3.90;97997.00;;;;5051499;28;20728;-76
2022/11/12 07:22:22;;;;;;;0.10;0.10;;;5.50;99.90;4.00;97893.00;;;;5051567;28;20264;-75
2022/11/12 07:25:09;;;;;;;0.00;0.00;;;5.60;99.90;4.10;97904.00;;;;5052098;28;20212;-74
2022/11/12 07:27:57;;;;;;;0.10;0.10;;;5.60;99.90;3.90;97856.00;;;;5049066;28;20229;-73
2022/11/12 07:30:44;;;;;;;0.10;0.10;;;5.70;99.90;4.10;97868.00;;;;5050330;28;20293;-75
2022/11/12 07:33:32;;;;;;;0.10;0.10;;;5.70;99.90;4.20;97905.00;;;;5051730;28;20569;-74
2022/11/12 07:36:21;;;;;;;0.10;0.10;;;5.70;99.90;4.20;97891.00;;;;5051948;28;20260;-72
2022/11/12 07:39:08;;;;;;;0.10;0.10;;;5.70;99.90;4.20;97843.00;;;;5047211;28;20835;-75
2022/11/12 07:41:55;;;;;;;0.10;0.10;;;5.70;99.90;4.20;97836.00;;;;5044136;28;20233;-74
2022/11/12 07:44:43;;;;;;;0.10;0.10;;;5.80;99.90;4.30;97825.00;;;;5047856;28;20693;-74
2022/11/12 07:47:30;;;;;;;0.10;0.10;;;5.90;99.90;4.30;97773.00;;;;5058321;28;20381;-74
2022/11/12 07:50:17;;;;;;;0.10;0.10;;;5.90;99.90;4.30;97797.00;;;;5050872;28;20556;-75
2022/11/12 07:53:04;;;;;;;0.08;0.08;;;5.90;99.90;4.40;97805.00;;;;5049633;28;20285;-75
2022/11/12 07:55:55;;;;;;;0.10;0.10;;;6.00;99.90;4.60;97810.00;;;;5052954;28;20232;-74
2022/11/12 07:58:46;;;;;;;0.10;0.10;;;6.10;99.90;4.70;97836.00;;;;5036668;28;20350;-77
2022/11/12 08:01:36;;;;;;;0.10;0.10;;;6.20;99.90;4.80;97832.00;;;;5050760;28;20226;-75
2022/11/12 08:04:23;;;;;;;0.10;0.10;;;6.30;99.90;4.90;97839.00;;;;5044235;28;20670;-75
2022/11/12 08:07:09;;;;;;;0.10;0.10;;;6.40;99.90;5.00;97847.00;;;;5059779;28;20604;-74
2022/11/12 08:09:57;;;;;;;0.10;0.10;;;6.60;99.90;5.10;97830.00;;;;5050294;28;20229;-76
2022/11/12 08:12:44;;;;;;;0.10;0.10;;;6.60;99.90;5.20;97854.00;;;;5045606;28;20282;-74
2022/11/12 08:15:31;;;;;;;0.10;0.10;;;6.70;99.90;5.30;97853.00;;;;5058560;28;20205;-75
2022/11/12 08:18:19;;;;;;;0.10;0.10;;;6.80;99.90;5.40;97816.00;;;;5039200;28;20233;-75
2022/11/12 08:21:09;;;;;;;0.10;0.10;;;6.90;99.90;5.50;97833.00;;;;5049874;28;20272;-75
2022/11/12 08:23:56;;;;;;;0.10;0.10;;;7.00;99.90;5.60;97841.00;;;;5041308;28;20200;-76
2022/11/12 08:26:43;;;;;;;0.10;0.10;;;7.10;99.90;5.70;97849.00;;;;5051117;28;20206;-75
2022/11/12 08:29:30;;;;;;;0.10;0.10;;;7.20;99.90;5.90;97854.00;;;;5042253;28;20247;-75
2022/11/12 08:32:17;;;;;;;0.10;0.10;;;7.40;99.90;6.00;97854.00;;;;5047514;28;20290;-75
2022/11/12 08:35:05;;;;;;;0.10;0.10;;;7.40;99.90;6.00;97888.00;;;;5049675;28;20217;-75
2022/11/12 08:37:52;;;;;;;0.03;0.03;;;7.50;99.90;6.20;97857.00;;;;5043641;28;20205;-76
2022/11/12 08:40:39;;;;;;;0.10;0.10;;;7.70;99.90;6.30;97872.00;;;;5046282;28;20221;-78
2022/11/12 08:43:26;;;;;;;0.10;0.10;;;7.80;99.90;6.40;97863.00;;;;5042739;28;20368;-75
2022/11/12 08:46:13;;;;;;;0.10;0.10;;;7.90;99.90;6.50;97847.00;;;;5046975;28;20338;-75
2022/11/12 08:48:59;;;;;;;0.10;0.10;;;8.00;99.90;6.60;97872.00;;;;5041492;28;20356;-77
2022/11/12 08:51:47;;;;;;;0.10;0.10;;;8.00;99.90;6.70;97891.00;;;;5050473;28;20216;-75
2022/11/12 08:54:34;;;;;;;0.10;0.10;;;8.10;99.90;6.80;97975.00;;;;5039114;28;20213;-75
2022/11/12 08:57:21;;;;;;;0.10;0.10;;;8.20;99.90;6.90;97994.00;;;;5051003;28;20217;-75
2022/11/12 09:00:11;;;;;;;0.00;0.00;;;8.30;99.90;7.00;98008.00;;;;5050627;28;20206;-75
2022/11/12 09:03:00;;;;;;;0.10;0.10;;;8.40;99.90;7.10;98007.00;;;;5053925;28;20210;-77
2022/11/12 09:05:48;;;;;;;0.10;0.10;;;8.50;99.90;7.20;97986.00;;;;5057595;28;20262;-75
2022/11/12 09:08:38;;;;;;;0.10;0.10;;;8.60;99.90;7.30;97995.00;;;;5063904;28;20233;-76
2022/11/12 09:11:25;;;;;;;0.10;0.10;;;8.70;99.90;7.40;97991.00;;;;5068081;28;20289;-75
2022/11/12 09:14:12;;;;;;;0.10;0.10;;;8.80;99.90;7.50;98004.00;;;;5058263;28;20205;-75
2022/11/12 09:16:58;;;;;;;0.10;0.10;;;8.90;99.90;7.70;98014.00;;;;5047183;28;20338;-75
2022/11/12 09:19:45;;;;;;;0.10;0.10;;;9.00;99.90;7.80;98023.00;;;;5050238;28;20233;-76
2022/11/12 09:22:32;;;;;;;0.10;0.10;;;9.10;99.90;7.90;98007.00;;;;5048237;28;20572;-75
2022/11/12 09:25:20;;;;;;;0.00;0.00;;;9.20;99.90;7.90;97977.00;;;;5049403;28;20205;-76
2022/11/12 09:28:09;;;;;;;0.10;0.10;;;9.30;99.90;8.10;97970.00;;;;5046879;28;20225;-75
2022/11/12 09:30:56;;;;;;;0.10;0.10;;;9.40;99.90;8.20;97989.00;;;;5055259;28;20668;-75
2022/11/12 09:33:42;;;;;;;0.10;0.10;;;9.50;99.90;8.30;98013.00;;;;5052444;28;20699;-75
2022/11/12 09:36:29;;;;;;;0.10;0.10;;;9.70;99.90;8.50;97992.00;;;;5048015;28;20571;-75
2022/11/12 09:39:16;;;;;;;0.10;0.10;;;9.80;99.90;8.50;97965.00;;;;5051801;28;20297;-75
2022/11/12 09:42:09;;;;;;;0.10;0.10;;;9.90;99.90;8.70;97981.00;;;;5046026;28;20221;-74
2022/11/12 09:45:01;;;;;;;0.10;0.10;;;10.00;99.90;8.80;97983.00;;;;5045330;28;20300;-76
2022/11/12 09:47:54;;;;;;;0.10;0.10;;;10.10;99.90;9.00;97996.00;;;;5056916;28;20631;-74
2022/11/12 09:50:57;;;;;;;0.10;0.10;;;10.30;99.90;9.10;97990.00;;;;5049026;28;20228;-73
2022/11/12 09:53:54;;;;;;;0.00;0.00;;;10.40;99.90;9.20;97969.00;;;;5051409;28;20205;-73
2022/11/12 09:56:41;;;;;;;0.10;0.10;;;10.50;99.90;9.30;97961.00;;;;5043197;28;20206;-73
2022/11/12 09:59:32;;;;;;;0.10;0.10;;;10.60;99.90;9.40;97969.00;;;;5051210;28;20383;-76
2022/11/12 10:02:31;;;;;;;0.10;0.10;;;10.70;99.90;9.50;97967.00;;;;5048492;28;20229;-73
2022/11/12 10:05:28;;;;;;;0.10;0.10;;;10.80;99.90;9.60;97931.00;;;;5052851;28;20303;-72
2022/11/12 10:08:37;;;;;;;0.10;0.10;;;10.90;99.90;9.80;97979.00;;;;5035329;28;20241;-73
2022/11/12 10:18:54;;;;;;;0.10;0.10;;;11.40;99.90;10.40;98017.00;;;;5047596;28;20699;-73
2022/11/12 10:21:51;;;;;;;0.10;0.10;;;11.60;99.90;10.60;98026.00;;;;5047273;28;20217;-74
2022/11/12 10:24:41;;;;;;;0.10;0.10;;;11.70;99.90;10.80;98030.00;;;;5053492;28;20206;-73
2022/11/12 10:27:38;;;;;;;0.10;0.10;;;11.90;99.90;11.00;98147.00;;;;5052166;28;20201;-73
2022/11/12 10:30:26;;;;;;;0.00;0.00;;;12.10;99.90;11.10;98002.00;;;;5056525;28;20573;-73
2022/11/12 10:33:15;;;;;;;0.10;0.10;;;12.30;99.90;11.30;98022.00;;;;5064828;28;20220;-74
2022/11/12 10:36:27;;;;;;;0.00;0.00;;;12.40;99.90;11.40;98039.00;;;;5054181;28;20205;-73
2022/11/12 10:39:34;;;;;;;0.10;0.10;;;12.60;99.90;11.60;98030.00;;;;5052550;28;20287;-73
2022/11/12 10:42:22;;;;;;;0.00;0.00;;;12.70;99.90;11.70;98061.00;;;;5045581;28;20272;-74
2022/11/12 10:45:25;;;;;;;0.00;0.00;;;12.70;99.90;11.80;98050.00;;;;5052434;28;20300;-73
2022/11/12 10:48:23;;;;;;;0.10;0.10;;;12.90;99.90;12.10;98036.00;;;;5041501;28;20226;-74
2022/11/12 10:51:26;;;;;;;0.00;0.00;;;13.10;99.90;12.20;98032.00;;;;5057674;28;20794;-75
2022/11/12 10:54:28;;;;;;;0.10;0.10;;;13.30;99.90;12.30;98029.00;;;;5052626;28;20217;-73
2022/11/12 10:57:21;;;;;;;0.00;0.00;;;13.40;99.90;12.40;98018.00;;;;5052957;28;20782;-76
2022/11/12 11:00:20;;;;;;;0.10;0.10;;;13.40;99.90;12.60;98132.00;;;;5053180;28;20283;-73
2022/11/12 11:03:29;;;;;;;0.10;0.10;;;13.50;99.90;12.50;98113.00;;;;5052284;28;20734;-73
2022/11/12 11:06:25;;;;;;;0.10;0.10;;;13.60;99.90;12.80;98032.00;;;;5052091;28;20229;-76
2022/11/12 11:09:19;;;;;;;0.10;0.10;;;13.80;99.90;12.90;98042.00;;;;5050290;28;20292;-74
2022/11/12 11:12:22;;;;;;;0.00;0.00;;;13.90;99.90;13.00;98047.00;;;;5051591;28;20205;-73
2022/11/12 11:15:20;;;;;;;0.00;0.00;;;14.00;99.90;13.30;98049.00;;;;5057268;28;20208;-73
2022/11/12 11:18:13;;;;;;;0.00;0.00;;;14.20;99.90;13.40;98062.00;;;;5051463;28;20736;-73
2022/11/12 11:21:13;;;;;;;0.10;0.10;;;14.30;99.90;13.60;98068.00;;;;5045805;28;20206;-73
2022/11/12 11:24:18;;;;;;;0.10;0.10;;;14.40;99.90;13.70;98056.00;;;;5049112;28;20201;-73
2022/11/12 11:27:26;;;;;;;0.10;0.10;;;14.50;99.90;13.90;98052.00;;;;5050500;28;20595;-74
2022/11/12 11:30:16;;;;;;;0.00;0.00;;;14.70;99.90;14.20;98048.00;;;;5049555;28;20295;-74
2022/11/12 11:33:25;;;;;;;0.10;0.10;;;15.00;99.90;14.50;98060.00;;;;5057737;28;20287;-73
2022/11/12 11:36:24;;;;;;;0.10;0.10;;;15.20;99.90;14.90;98081.00;;;;5046773;28;20252;-73
2022/11/12 11:39:24;;;;;;;0.05;0.05;;;15.40;99.90;15.90;98119.00;;;;5050855;28;20225;-74
2022/11/12 11:42:35;;;;;;;0.00;0.00;;;15.70;99.90;17.80;98123.00;;;;5051723;28;20291;-73
2022/11/12 11:45:33;;;;;;;0.00;0.00;;;16.40;99.90;19.90;98268.00;;;;5040619;28;20212;-73
2022/11/12 11:48:43;;;;;;;0.00;0.00;;;17.40;99.90;21.60;98255.00;;;;5051628;28;20225;-74
2022/11/12 11:51:44;;;;;;;0.00;0.00;;;18.40;99.90;21.90;98185.00;;;;5048706;28;20213;-74
2022/11/12 11:55:02;;;;;;;0.00;0.00;;;19.30;99.90;21.40;98180.00;;;;5046164;28;20197;-73
2022/11/12 11:58:15;;;;;;;0.00;0.00;;;19.70;99.90;21.10;98164.00;;;;5048342;28;20209;-73
2022/11/12 12:01:15;;;;;;;0.00;0.00;;;20.00;99.90;21.10;98172.00;;;;5046378;28;20209;-74
2022/11/12 12:04:32;;;;;;;0.00;0.00;;;20.40;99.90;21.30;98192.00;;;;5050075;28;20754;-74
2022/11/12 12:07:35;;;;;;;0.00;0.00;;;21.00;99.90;21.60;98189.00;;;;5055510;28;20297;-73
2022/11/12 12:10:27;;;;;;;0.00;0.00;;;21.30;99.80;22.10;98185.00;;;;5051186;28;20200;-74
2022/11/12 12:13:52;;;;;;;0.00;0.00;;;21.90;98.00;21.60;98171.00;;;;5050821;28;20209;-74
2022/11/12 12:16:58;;;;;;;0.00;0.00;;;22.10;96.80;20.60;98156.00;;;;5045677;28;20208;-74
2022/11/12 12:20:04;;;;;;;0.00;0.00;;;21.20;95.60;20.30;98165.00;;;;5051957;28;20232;-74
2022/11/12 12:22:59;;;;;;;0.00;0.00;;;20.90;98.30;20.10;98152.00;;;;5047307;28;20225;-74
2022/11/12 12:25:49;;;;;;;0.00;0.00;;;20.60;95.70;19.80;98162.00;;;;5051259;28;20703;-74
2022/11/12 12:28:43;;;;;;;0.00;0.00;;;20.60;97.10;19.80;98129.00;;;;5047425;28;20229;-74
2022/11/12 12:31:38;;;;;;;0.00;0.00;;;20.60;95.50;19.90;98139.00;;;;5059865;28;20220;-74
2022/11/12 12:34:31;;;;;;;0.00;0.00;;;20.60;95.80;19.90;98154.00;;;;5045191;28;20201;-75
2022/11/12 12:37:30;;;;;;;0.00;0.00;;;20.50;96.10;19.70;98119.00;;;;5052473;28;20316;-74
2022/11/12 12:40:23;;;;;;;0.00;0.00;;;20.50;96.20;19.30;98116.00;;;;5051975;28;20711;-74
2022/11/12 12:43:22;;;;;;;0.00;0.00;;;20.10;97.00;19.10;98087.00;;;;5054964;28;20575;-73
2022/11/12 12:46:13;;;;;;;0.00;0.00;;;19.80;98.40;19.10;98106.00;;;;5055827;28;20248;-73
2022/11/12 12:49:04;;;;;;;0.00;0.00;;;19.80;98.70;19.10;98112.00;;;;5054646;28;20712;-73
2022/11/12 12:51:52;;;;;;;0.00;0.00;;;19.80;99.90;19.20;98117.00;;;;5056127;28;20213;-73
2022/11/12 12:54:58;;;;;;;0.00;0.00;;;19.80;99.90;19.20;98070.00;;;;5050302;28;20252;-74
2022/11/12 12:57:45;;;;;;;0.00;0.00;;;19.70;99.90;19.20;98062.00;;;;5055434;28;20252;-74
2022/11/12 13:00:38;;;;;;;0.00;0.00;;;19.70;99.90;19.20;98052.00;;;;5049339;28;20217;-74
2022/11/12 13:03:53;;;;;;;0.00;0.00;;;19.70;99.90;18.90;98065.00;;;;5052034;28;20233;-73
2022/11/12 13:06:52;;;;;;;0.00;0.00;;;19.40;99.90;18.70;98100.00;;;;5052207;28;20272;-74
2022/11/12 13:09:38;;;;;;;0.00;0.00;;;19.20;99.90;18.50;98095.00;;;;5048467;28;20766;-74
2022/11/12 13:13:03;;;;;;;0.00;0.00;;;19.00;99.90;18.30;98119.00;;;;5054930;28;20213;-73
2022/11/12 13:15:52;;;;;;;0.00;0.00;;;18.90;99.90;18.20;98077.00;;;;5042858;28;20205;-74
2022/11/12 13:19:00;;;;;;;0.00;0.00;;;18.70;99.90;18.10;98065.00;;;;5053892;28;20226;-74
2022/11/12 13:21:47;;;;;;;0.00;0.00;;;18.60;99.90;18.10;98053.00;;;;5050628;28;20352;-74
2022/11/12 13:25:03;;;;;;;0.00;0.00;;;18.50;99.90;18.30;98056.00;;;;5043403;28;20232;-73
2022/11/12 13:28:13;;;;;;;0.00;0.00;;;18.50;99.90;18.40;98076.00;;;;5043520;28;20209;-73
2022/11/12 13:31:03;;;;;;;0.00;0.00;;;18.40;99.90;18.40;98088.00;;;;5051852;28;20271;-74
2022/11/12 13:33:50;;;;;;;0.00;0.00;;;18.40;99.90;18.60;98081.00;;;;5054837;28;20687;-74
2022/11/12 13:36:37;;;;;;;0.00;0.00;;;18.50;99.90;18.60;98085.00;;;;5036812;28;20288;-75
2022/11/12 13:39:24;;;;;;;0.00;0.00;;;18.50;99.90;18.70;98082.00;;;;5041901;28;20221;-73
2022/11/12 13:45:24;;;;;;;0.00;0.00;;;18.50;99.90;18.40;97994.00;;;;5053737;28;20705;-74
2022/11/12 13:48:18;;;;;;;0.00;0.00;;;18.40;99.90;18.20;98065.00;;;;5051954;28;20217;-73
2022/11/12 13:51:12;;;;;;;0.00;0.00;;;18.30;99.90;17.90;98047.00;;;;5053850;28;20567;-73
2022/11/12 13:53:59;;;;;;;0.00;0.00;;;18.20;99.90;17.60;98068.00;;;;5031407;28;20813;-76
2022/11/12 13:56:46;;;;;;;0.00;0.00;;;18.10;99.90;17.40;98045.00;;;;5044298;28;20217;-73
2022/11/12 13:59:41;;;;;;;0.00;0.00;;;17.90;99.90;17.10;98048.00;;;;5047907;28;20272;-74